Farmersville's Hourly Summary for Thursday, March 16, 2017
Hour Temp
(f)
RH
(%)
Solar Rad.
(MJ/m2)
Rainfall
(in)
Wind
(mph)
3/16/2017 12:00 AM 49 65 0 0 6.21
3/16/2017 1:00 AM 48 68 0 0 5.93
3/16/2017 2:00 AM 48 70 0 0 5.07
3/16/2017 3:00 AM 47 73 0 0 5.25
3/16/2017 4:00 AM 48 75 0 0 5.51
3/16/2017 5:00 AM 48 78 0 0 3.99
3/16/2017 6:00 AM 50 84 0 0 3.74
3/16/2017 7:00 AM 52 87 0 0 2.06
3/16/2017 8:00 AM 53 93 0 0 3.42
3/16/2017 9:00 AM 54 100 0.06 0 3.27
3/16/2017 10:00 AM 54 97 0.19 0 3.84
3/16/2017 11:00 AM 55 88 0.35 0 4.63
3/16/2017 12:00 PM 57 82 0.54 0 5.49
3/16/2017 1:00 PM 60 76 0.97 0 5.08
3/16/2017 2:00 PM 62 73 1.15 0 6.02
3/16/2017 3:00 PM 65 69 1.43 0 6.14
3/16/2017 4:00 PM 67 66 0.99 0 6.64
3/16/2017 5:00 PM 66 71 0.47 0 6.16
3/16/2017 6:00 PM 68 68 0.64 0 6.54
3/16/2017 7:00 PM 68 68 0.3 0 5.26
3/16/2017 8:00 PM 68 69 0.04 0 4.42
3/16/2017 9:00 PM 66 73 0 0 3.59
3/16/2017 10:00 PM 66 74 0 0 4.48
3/16/2017 11:00 PM 65 77 0 0 4.82
Data Summary 57 76 7.13 0.00 4.90